sensor_id;sensor_type;location;lat;lon;timestamp;pressure;altitude;pressure_sealevel;temperature;humidity
77303;BME280;66363;49.828;7.856;2023-03-26T00:01:35;99559.94;;;7.75;72.64
77303;BME280;66363;49.828;7.856;2023-03-26T00:04:04;99563.00;;;7.95;71.88
77303;BME280;66363;49.828;7.856;2023-03-26T00:06:31;99571.97;;;7.92;72.29
77303;BME280;66363;49.828;7.856;2023-03-26T00:08:57;99562.69;;;7.87;72.47
77303;BME280;66363;49.828;7.856;2023-03-26T00:11:24;99561.09;;;7.71;73.61
77303;BME280;66363;49.828;7.856;2023-03-26T00:13:51;99559.50;;;7.69;73.27
77303;BME280;66363;49.828;7.856;2023-03-26T00:16:18;99560.84;;;7.62;73.72
77303;BME280;66363;49.828;7.856;2023-03-26T00:18:45;99561.91;;;7.59;74.67
77303;BME280;66363;49.828;7.856;2023-03-26T00:21:14;99561.50;;;7.53;74.91
77303;BME280;66363;49.828;7.856;2023-03-26T00:23:40;99557.97;;;7.39;75.82
77303;BME280;66363;49.828;7.856;2023-03-26T00:26:06;99570.03;;;7.43;75.75
77303;BME280;66363;49.828;7.856;2023-03-26T00:28:32;99563.16;;;7.41;75.97
77303;BME280;66363;49.828;7.856;2023-03-26T00:30:59;99574.34;;;7.44;76.34
77303;BME280;66363;49.828;7.856;2023-03-26T00:33:25;99569.19;;;7.43;76.10
77303;BME280;66363;49.828;7.856;2023-03-26T00:35:52;99571.50;;;7.47;76.29
77303;BME280;66363;49.828;7.856;2023-03-26T00:38:19;99564.94;;;7.40;76.48
77303;BME280;66363;49.828;7.856;2023-03-26T00:40:45;99570.13;;;7.42;75.97
77303;BME280;66363;49.828;7.856;2023-03-26T00:43:10;99580.81;;;7.53;75.92
77303;BME280;66363;49.828;7.856;2023-03-26T00:45:36;99577.53;;;7.62;75.83
77303;BME280;66363;49.828;7.856;2023-03-26T00:48:02;99549.25;;;7.64;75.00
77303;BME280;66363;49.828;7.856;2023-03-26T00:50:27;99549.78;;;7.69;75.38
77303;BME280;66363;49.828;7.856;2023-03-26T00:52:53;99552.63;;;7.66;75.83
77303;BME280;66363;49.828;7.856;2023-03-26T00:55:20;99554.00;;;7.59;76.19
77303;BME280;66363;49.828;7.856;2023-03-26T00:57:46;99559.06;;;7.62;76.59
77303;BME280;66363;49.828;7.856;2023-03-26T01:00:12;99539.19;;;7.57;76.01
77303;BME280;66363;49.828;7.856;2023-03-26T01:02:38;99547.44;;;7.65;76.84
77303;BME280;66363;49.828;7.856;2023-03-26T01:07:58;99545.25;;;7.71;76.27
77303;BME280;66363;49.828;7.856;2023-03-26T01:10:26;99538.28;;;7.70;75.89
77303;BME280;66363;49.828;7.856;2023-03-26T01:12:52;99541.13;;;7.67;76.31
77303;BME280;66363;49.828;7.856;2023-03-26T01:15:17;99531.72;;;7.63;76.38
77303;BME280;66363;49.828;7.856;2023-03-26T01:17:43;99526.34;;;7.52;76.96
77303;BME280;66363;49.828;7.856;2023-03-26T01:20:14;99538.59;;;7.53;76.75
77303;BME280;66363;49.828;7.856;2023-03-26T01:22:44;99530.03;;;7.49;77.81
77303;BME280;66363;49.828;7.856;2023-03-26T01:25:13;99513.22;;;7.51;77.06
77303;BME280;66363;49.828;7.856;2023-03-26T01:27:41;99519.13;;;7.54;77.63
77303;BME280;66363;49.828;7.856;2023-03-26T01:30:12;99513.84;;;7.54;76.87
77303;BME280;66363;49.828;7.856;2023-03-26T01:32:56;99515.97;;;7.62;77.47
77303;BME280;66363;49.828;7.856;2023-03-26T01:35:31;99494.22;;;7.58;77.13
77303;BME280;66363;49.828;7.856;2023-03-26T01:38:08;99482.69;;;7.59;76.79
77303;BME280;66363;49.828;7.856;2023-03-26T01:40:40;99486.09;;;7.61;77.24
77303;BME280;66363;49.828;7.856;2023-03-26T01:43:12;99473.94;;;7.59;76.76
77303;BME280;66363;49.828;7.856;2023-03-26T01:45:44;99469.94;;;7.53;77.07
77303;BME280;66363;49.828;7.856;2023-03-26T01:48:11;99457.78;;;7.51;76.80
77303;BME280;66363;49.828;7.856;2023-03-26T01:50:37;99471.84;;;7.51;77.40
77303;BME280;66363;49.828;7.856;2023-03-26T01:53:03;99472.16;;;7.46;77.12
77303;BME280;66363;49.828;7.856;2023-03-26T01:55:38;99461.69;;;7.45;77.46
77303;BME280;66363;49.828;7.856;2023-03-26T01:58:09;99459.38;;;7.40;77.19
77303;BME280;66363;49.828;7.856;2023-03-26T02:00:37;99455.47;;;7.46;77.72
77303;BME280;66363;49.828;7.856;2023-03-26T02:03:15;99452.81;;;7.46;76.76
77303;BME280;66363;49.828;7.856;2023-03-26T02:05:50;99453.97;;;7.42;77.72
77303;BME280;66363;49.828;7.856;2023-03-26T02:08:21;99451.88;;;7.47;77.88
77303;BME280;66363;49.828;7.856;2023-03-26T02:10:51;99446.81;;;7.44;77.29
77303;BME280;66363;49.828;7.856;2023-03-26T02:13:19;99437.06;;;7.32;77.92
77303;BME280;66363;49.828;7.856;2023-03-26T02:15:54;99446.78;;;7.31;78.07
77303;BME280;66363;49.828;7.856;2023-03-26T02:18:20;99442.16;;;7.35;77.96
77303;BME280;66363;49.828;7.856;2023-03-26T02:20:46;99439.81;;;7.30;78.00
77303;BME280;66363;49.828;7.856;2023-03-26T02:23:12;99424.94;;;7.29;78.27
77303;BME280;66363;49.828;7.856;2023-03-26T02:25:37;99426.72;;;7.29;78.33
77303;BME280;66363;49.828;7.856;2023-03-26T02:28:04;99423.47;;;7.25;78.12
77303;BME280;66363;49.828;7.856;2023-03-26T02:30:30;99407.31;;;7.17;77.64
77303;BME280;66363;49.828;7.856;2023-03-26T02:32:55;99423.69;;;7.22;78.73
77303;BME280;66363;49.828;7.856;2023-03-26T02:35:21;99415.44;;;7.14;78.67
77303;BME280;66363;49.828;7.856;2023-03-26T02:37:47;99412.88;;;7.12;78.70
77303;BME280;66363;49.828;7.856;2023-03-26T02:40:12;99409.63;;;7.09;78.55
77303;BME280;66363;49.828;7.856;2023-03-26T02:42:38;99412.16;;;7.10;78.74
77303;BME280;66363;49.828;7.856;2023-03-26T02:45:06;99407.19;;;7.06;78.55
77303;BME280;66363;49.828;7.856;2023-03-26T02:47:32;99410.88;;;7.03;79.13
77303;BME280;66363;49.828;7.856;2023-03-26T02:49:57;99399.06;;;6.96;79.88
77303;BME280;66363;49.828;7.856;2023-03-26T02:52:23;99397.69;;;7.03;79.22
77303;BME280;66363;49.828;7.856;2023-03-26T02:54:48;99399.59;;;7.01;79.07
77303;BME280;66363;49.828;7.856;2023-03-26T02:57:14;99393.78;;;6.96;79.76
77303;BME280;66363;49.828;7.856;2023-03-26T02:59:40;99387.34;;;7.00;79.42
77303;BME280;66363;49.828;7.856;2023-03-26T03:02:07;99371.75;;;6.97;78.83
77303;BME280;66363;49.828;7.856;2023-03-26T03:04:32;99375.09;;;7.12;78.81
77303;BME280;66363;49.828;7.856;2023-03-26T03:06:58;99350.63;;;6.97;79.16
77303;BME280;66363;49.828;7.856;2023-03-26T03:09:24;99371.84;;;7.08;78.86
77303;BME280;66363;49.828;7.856;2023-03-26T03:11:50;99362.88;;;7.11;79.13
77303;BME280;66363;49.828;7.856;2023-03-26T03:14:15;99359.38;;;7.10;78.82
77303;BME280;66363;49.828;7.856;2023-03-26T03:16:41;99350.53;;;6.99;79.42
77303;BME280;66363;49.828;7.856;2023-03-26T03:19:08;99357.81;;;6.95;80.28
77303;BME280;66363;49.828;7.856;2023-03-26T03:21:34;99354.94;;;6.86;80.65
77303;BME280;66363;49.828;7.856;2023-03-26T03:23:59;99341.25;;;6.93;80.52
77303;BME280;66363;49.828;7.856;2023-03-26T03:26:25;99333.75;;;7.00;81.14
77303;BME280;66363;49.828;7.856;2023-03-26T03:28:50;99331.97;;;7.00;80.37
77303;BME280;66363;49.828;7.856;2023-03-26T03:31:16;99336.50;;;6.98;80.75
77303;BME280;66363;49.828;7.856;2023-03-26T03:33:42;99333.00;;;7.10;80.22
77303;BME280;66363;49.828;7.856;2023-03-26T03:36:10;99329.41;;;7.11;79.40
77303;BME280;66363;49.828;7.856;2023-03-26T03:38:36;99343.78;;;7.20;81.18
77303;BME280;66363;49.828;7.856;2023-03-26T03:41:02;99339.34;;;7.21;81.19
77303;BME280;66363;49.828;7.856;2023-03-26T03:43:28;99336.72;;;7.21;81.83
77303;BME280;66363;49.828;7.856;2023-03-26T03:45:53;99321.41;;;7.13;81.51
77303;BME280;66363;49.828;7.856;2023-03-26T03:48:19;99330.38;;;7.10;82.36
77303;BME280;66363;49.828;7.856;2023-03-26T03:50:45;99319.81;;;7.10;82.93
77303;BME280;66363;49.828;7.856;2023-03-26T03:53:12;99305.25;;;7.05;82.66
77303;BME280;66363;49.828;7.856;2023-03-26T03:55:37;99297.66;;;7.13;82.16
77303;BME280;66363;49.828;7.856;2023-03-26T03:58:03;99290.91;;;7.09;81.93
77303;BME280;66363;49.828;7.856;2023-03-26T04:00:28;99288.25;;;7.22;81.62
77303;BME280;66363;49.828;7.856;2023-03-26T04:02:54;99288.38;;;7.20;81.45
77303;BME280;66363;49.828;7.856;2023-03-26T04:05:20;99266.00;;;7.13;81.74
77303;BME280;66363;49.828;7.856;2023-03-26T04:07:45;99282.47;;;7.17;82.32
77303;BME280;66363;49.828;7.856;2023-03-26T04:10:13;99275.72;;;7.12;82.83
77303;BME280;66363;49.828;7.856;2023-03-26T04:12:39;99264.72;;;7.06;83.00
77303;BME280;66363;49.828;7.856;2023-03-26T04:15:05;99264.94;;;7.03;83.46
77303;BME280;66363;49.828;7.856;2023-03-26T04:17:31;99253.78;;;6.99;83.48
77303;BME280;66363;49.828;7.856;2023-03-26T04:19:56;99239.00;;;6.84;83.99
77303;BME280;66363;49.828;7.856;2023-03-26T04:22:22;99227.94;;;6.92;83.46
77303;BME280;66363;49.828;7.856;2023-03-26T04:24:48;99220.88;;;6.79;83.00
77303;BME280;66363;49.828;7.856;2023-03-26T04:27:17;99204.75;;;6.84;82.86
77303;BME280;66363;49.828;7.856;2023-03-26T04:29:45;99213.19;;;6.89;83.04
77303;BME280;66363;49.828;7.856;2023-03-26T04:32:17;99209.16;;;6.96;82.64
77303;BME280;66363;49.828;7.856;2023-03-26T04:34:46;99222.53;;;7.06;81.58
77303;BME280;66363;49.828;7.856;2023-03-26T04:37:16;99224.88;;;6.98;81.74
77303;BME280;66363;49.828;7.856;2023-03-26T04:39:45;99224.44;;;7.04;82.35
77303;BME280;66363;49.828;7.856;2023-03-26T04:42:11;99223.94;;;6.99;82.84
77303;BME280;66363;49.828;7.856;2023-03-26T04:44:38;99208.84;;;6.88;82.92
77303;BME280;66363;49.828;7.856;2023-03-26T04:47:03;99209.69;;;6.89;83.38
77303;BME280;66363;49.828;7.856;2023-03-26T04:49:29;99201.56;;;6.92;83.28
77303;BME280;66363;49.828;7.856;2023-03-26T04:51:54;99203.69;;;6.87;83.18
77303;BME280;66363;49.828;7.856;2023-03-26T04:54:21;99188.81;;;6.98;82.79
77303;BME280;66363;49.828;7.856;2023-03-26T04:56:50;99187.75;;;7.01;82.48
77303;BME280;66363;49.828;7.856;2023-03-26T04:59:19;99179.47;;;7.05;82.41
77303;BME280;66363;49.828;7.856;2023-03-26T05:01:47;99170.84;;;7.03;82.05
77303;BME280;66363;49.828;7.856;2023-03-26T05:04:12;99170.00;;;7.03;82.69
77303;BME280;66363;49.828;7.856;2023-03-26T05:06:38;99158.09;;;6.97;82.43
77303;BME280;66363;49.828;7.856;2023-03-26T05:09:04;99151.78;;;7.00;82.92
77303;BME280;66363;49.828;7.856;2023-03-26T05:11:30;99152.72;;;6.99;83.61
77303;BME280;66363;49.828;7.856;2023-03-26T05:13:55;99147.78;;;6.94;82.93
77303;BME280;66363;49.828;7.856;2023-03-26T05:16:21;99149.56;;;6.94;82.49
77303;BME280;66363;49.828;7.856;2023-03-26T05:18:48;99154.84;;;6.94;82.81
77303;BME280;66363;49.828;7.856;2023-03-26T05:21:14;99148.81;;;6.92;83.83
77303;BME280;66363;49.828;7.856;2023-03-26T05:23:39;99136.81;;;6.88;83.81
77303;BME280;66363;49.828;7.856;2023-03-26T05:26:05;99129.75;;;6.88;83.93
77303;BME280;66363;49.828;7.856;2023-03-26T05:28:31;99119.50;;;6.96;82.98
77303;BME280;66363;49.828;7.856;2023-03-26T05:30:56;99127.19;;;6.99;83.14
77303;BME280;66363;49.828;7.856;2023-03-26T05:33:22;99141.59;;;7.06;82.40
77303;BME280;66363;49.828;7.856;2023-03-26T05:35:58;99128.75;;;7.02;82.30
77303;BME280;66363;49.828;7.856;2023-03-26T05:38:24;99123.59;;;7.00;82.26
77303;BME280;66363;49.828;7.856;2023-03-26T05:40:50;99129.16;;;7.08;82.00
77303;BME280;66363;49.828;7.856;2023-03-26T05:43:15;99131.38;;;7.02;82.23
77303;BME280;66363;49.828;7.856;2023-03-26T05:45:41;99119.03;;;7.02;82.24
77303;BME280;66363;49.828;7.856;2023-03-26T05:48:06;99120.78;;;7.14;81.27
77303;BME280;66363;49.828;7.856;2023-03-26T05:50:32;99121.44;;;7.05;81.96
77303;BME280;66363;49.828;7.856;2023-03-26T05:52:59;99119.22;;;7.12;81.48
77303;BME280;66363;49.828;7.856;2023-03-26T05:55:25;99111.97;;;7.03;82.22
77303;BME280;66363;49.828;7.856;2023-03-26T05:57:50;99105.28;;;7.10;81.93
77303;BME280;66363;49.828;7.856;2023-03-26T06:00:16;99098.78;;;7.03;82.45
77303;BME280;66363;49.828;7.856;2023-03-26T06:02:42;99098.50;;;6.95;84.18
77303;BME280;66363;49.828;7.856;2023-03-26T06:05:08;99099.03;;;7.00;82.80
77303;BME280;66363;49.828;7.856;2023-03-26T06:07:33;99086.91;;;6.97;82.56
77303;BME280;66363;49.828;7.856;2023-03-26T06:10:00;99079.72;;;6.99;83.72
77303;BME280;66363;49.828;7.856;2023-03-26T06:12:26;99070.84;;;7.00;84.59
77303;BME280;66363;49.828;7.856;2023-03-26T06:14:51;99068.47;;;7.08;84.58
77303;BME280;66363;49.828;7.856;2023-03-26T06:17:17;99064.38;;;7.04;83.26
77303;BME280;66363;49.828;7.856;2023-03-26T06:19:43;99061.50;;;7.07;83.43
77303;BME280;66363;49.828;7.856;2023-03-26T06:22:08;99066.22;;;7.15;84.04
77303;BME280;66363;49.828;7.856;2023-03-26T06:24:34;99064.78;;;7.11;83.47
77303;BME280;66363;49.828;7.856;2023-03-26T06:27:01;99057.66;;;7.00;85.72
77303;BME280;66363;49.828;7.856;2023-03-26T06:29:27;99056.81;;;7.00;86.09
77303;BME280;66363;49.828;7.856;2023-03-26T06:31:53;99054.19;;;7.00;87.16
77303;BME280;66363;49.828;7.856;2023-03-26T06:34:18;99046.38;;;6.98;87.41
77303;BME280;66363;49.828;7.856;2023-03-26T06:36:44;99048.22;;;7.09;87.21
77303;BME280;66363;49.828;7.856;2023-03-26T06:39:09;99047.38;;;7.08;86.85
77303;BME280;66363;49.828;7.856;2023-03-26T06:41:35;99046.09;;;7.14;86.74
77303;BME280;66363;49.828;7.856;2023-03-26T06:44:02;99037.41;;;7.01;87.23
77303;BME280;66363;49.828;7.856;2023-03-26T06:46:28;99030.81;;;7.06;86.83
77303;BME280;66363;49.828;7.856;2023-03-26T06:48:53;99038.00;;;7.04;87.86
77303;BME280;66363;49.828;7.856;2023-03-26T06:51:19;99027.06;;;6.98;88.48
77303;BME280;66363;49.828;7.856;2023-03-26T06:53:45;99025.28;;;6.98;88.85
77303;BME280;66363;49.828;7.856;2023-03-26T06:56:10;99023.91;;;7.17;88.30
77303;BME280;66363;49.828;7.856;2023-03-26T06:58:36;99010.34;;;7.10;88.42
77303;BME280;66363;49.828;7.856;2023-03-26T07:01:04;99000.72;;;7.09;88.51
77303;BME280;66363;49.828;7.856;2023-03-26T07:03:29;99000.72;;;7.09;88.30
77303;BME280;66363;49.828;7.856;2023-03-26T07:05:55;98994.00;;;7.05;88.53
77303;BME280;66363;49.828;7.856;2023-03-26T07:08:21;98980.91;;;7.03;88.80
77303;BME280;66363;49.828;7.856;2023-03-26T07:10:46;98980.75;;;7.18;88.57
77303;BME280;66363;49.828;7.856;2023-03-26T07:13:12;98965.81;;;6.94;89.69
77303;BME280;66363;49.828;7.856;2023-03-26T07:15:38;98970.34;;;6.92;89.57
77303;BME280;66363;49.828;7.856;2023-03-26T07:18:05;98977.59;;;7.01;89.34
77303;BME280;66363;49.828;7.856;2023-03-26T07:20:31;98958.56;;;7.20;88.50
77303;BME280;66363;49.828;7.856;2023-03-26T07:22:57;98969.59;;;7.14;88.78
77303;BME280;66363;49.828;7.856;2023-03-26T07:25:23;98969.03;;;7.22;88.77
77303;BME280;66363;49.828;7.856;2023-03-26T07:27:58;98963.25;;;7.28;88.00
77303;BME280;66363;49.828;7.856;2023-03-26T07:30:35;98959.53;;;7.19;88.50
77303;BME280;66363;49.828;7.856;2023-03-26T07:33:10;98952.13;;;7.24;87.88
77303;BME280;66363;49.828;7.856;2023-03-26T07:35:39;98949.94;;;7.29;87.90
77303;BME280;66363;49.828;7.856;2023-03-26T07:38:26;98943.47;;;7.33;88.12
77303;BME280;66363;49.828;7.856;2023-03-26T07:40:59;98953.69;;;7.38;88.09
77303;BME280;66363;49.828;7.856;2023-03-26T07:43:52;98950.94;;;7.39;86.80
77303;BME280;66363;49.828;7.856;2023-03-26T07:46:28;98957.78;;;7.42;86.40
77303;BME280;66363;49.828;7.856;2023-03-26T07:48:57;98948.41;;;7.38;87.51
77303;BME280;66363;49.828;7.856;2023-03-26T07:51:23;98952.84;;;7.37;88.04
77303;BME280;66363;49.828;7.856;2023-03-26T07:53:49;98950.22;;;7.37;87.26
77303;BME280;66363;49.828;7.856;2023-03-26T07:56:16;98949.25;;;7.38;87.47
77303;BME280;66363;49.828;7.856;2023-03-26T07:58:55;98929.56;;;7.31;85.15
77303;BME280;66363;49.828;7.856;2023-03-26T08:01:37;98942.16;;;7.28;86.13
77303;BME280;66363;49.828;7.856;2023-03-26T08:04:25;98931.75;;;7.26;86.73
77303;BME280;66363;49.828;7.856;2023-03-26T08:06:59;98929.44;;;7.22;85.59
77303;BME280;66363;49.828;7.856;2023-03-26T08:09:32;98914.53;;;7.09;84.56
77303;BME280;66363;49.828;7.856;2023-03-26T08:12:05;98923.16;;;7.00;85.81
77303;BME280;66363;49.828;7.856;2023-03-26T08:14:46;98915.38;;;7.10;87.48
77303;BME280;66363;49.828;7.856;2023-03-26T08:17:18;98914.09;;;7.27;85.75
77303;BME280;66363;49.828;7.856;2023-03-26T08:19:54;98912.78;;;7.32;85.01
77303;BME280;66363;49.828;7.856;2023-03-26T08:22:28;98897.22;;;7.52;86.37
77303;BME280;66363;49.828;7.856;2023-03-26T08:25:04;98888.47;;;7.51;86.00
77303;BME280;66363;49.828;7.856;2023-03-26T08:27:38;98882.34;;;7.73;84.77
77303;BME280;66363;49.828;7.856;2023-03-26T08:30:10;98874.75;;;8.02;82.12
77303;BME280;66363;49.828;7.856;2023-03-26T08:32:39;98870.50;;;8.10;80.91
77303;BME280;66363;49.828;7.856;2023-03-26T08:35:10;98867.63;;;8.13;81.00
77303;BME280;66363;49.828;7.856;2023-03-26T08:37:36;98865.59;;;8.06;82.43
77303;BME280;66363;49.828;7.856;2023-03-26T08:40:01;98841.66;;;8.30;81.70
77303;BME280;66363;49.828;7.856;2023-03-26T08:42:56;98856.81;;;8.60;81.17
77303;BME280;66363;49.828;7.856;2023-03-26T08:45:52;98861.03;;;8.83;80.31
77303;BME280;66363;49.828;7.856;2023-03-26T08:49:00;98870.78;;;8.82;79.48
77303;BME280;66363;49.828;7.856;2023-03-26T08:52:05;98857.75;;;8.59;80.47
77303;BME280;66363;49.828;7.856;2023-03-26T08:54:46;98837.41;;;8.70;81.36
77303;BME280;66363;49.828;7.856;2023-03-26T08:57:55;98843.41;;;9.35;78.31
77303;BME280;66363;49.828;7.856;2023-03-26T09:00:45;98835.91;;;9.80;76.90
77303;BME280;66363;49.828;7.856;2023-03-26T09:09:52;98842.03;;;9.19;73.58
77303;BME280;66363;49.828;7.856;2023-03-26T09:12:52;98842.25;;;8.86;76.74
77303;BME280;66363;49.828;7.856;2023-03-26T09:15:50;98832.91;;;8.82;79.22
77303;BME280;66363;49.828;7.856;2023-03-26T09:18:40;98831.53;;;8.88;80.77
77303;BME280;66363;49.828;7.856;2023-03-26T09:21:40;98831.47;;;9.19;79.11
77303;BME280;66363;49.828;7.856;2023-03-26T09:27:27;98832.53;;;10.76;69.99
77303;BME280;66363;49.828;7.856;2023-03-26T09:30:24;98823.31;;;10.80;71.75
77303;BME280;66363;49.828;7.856;2023-03-26T09:33:31;98824.03;;;10.82;69.31
77303;BME280;66363;49.828;7.856;2023-03-26T09:36:18;98820.13;;;10.57;71.05
77303;BME280;66363;49.828;7.856;2023-03-26T09:38:51;98820.69;;;10.32;74.58
77303;BME280;66363;49.828;7.856;2023-03-26T09:41:24;98820.69;;;10.32;76.01
77303;BME280;66363;49.828;7.856;2023-03-26T09:44:25;98805.72;;;10.79;72.02
77303;BME280;66363;49.828;7.856;2023-03-26T09:49:52;98798.31;;;10.73;69.95
77303;BME280;66363;49.828;7.856;2023-03-26T09:52:44;98788.31;;;10.38;75.04
77303;BME280;66363;49.828;7.856;2023-03-26T09:55:25;98800.59;;;10.29;76.13
77303;BME280;66363;49.828;7.856;2023-03-26T09:58:03;98787.69;;;10.05;76.86
77303;BME280;66363;49.828;7.856;2023-03-26T10:00:40;98783.97;;;10.27;76.56
77303;BME280;66363;49.828;7.856;2023-03-26T10:03:19;98773.38;;;10.27;74.89
77303;BME280;66363;49.828;7.856;2023-03-26T10:05:56;98767.63;;;10.12;76.45
77303;BME280;66363;49.828;7.856;2023-03-26T10:08:47;98783.13;;;10.27;76.27
77303;BME280;66363;49.828;7.856;2023-03-26T10:11:22;98780.75;;;10.24;78.24
77303;BME280;66363;49.828;7.856;2023-03-26T10:14:02;98767.75;;;10.01;79.82
77303;BME280;66363;49.828;7.856;2023-03-26T10:16:40;98776.81;;;9.99;79.93
77303;BME280;66363;49.828;7.856;2023-03-26T10:19:25;98769.41;;;9.83;79.79
77303;BME280;66363;49.828;7.856;2023-03-26T10:22:01;98784.19;;;9.85;80.17
77303;BME280;66363;49.828;7.856;2023-03-26T10:24:55;98782.31;;;9.67;80.49
77303;BME280;66363;49.828;7.856;2023-03-26T10:27:35;98786.72;;;9.47;80.24
77303;BME280;66363;49.828;7.856;2023-03-26T10:30:24;98774.56;;;9.04;76.84
77303;BME280;66363;49.828;7.856;2023-03-26T10:33:01;98762.50;;;8.91;77.78
77303;BME280;66363;49.828;7.856;2023-03-26T10:35:45;98755.22;;;9.13;79.45
77303;BME280;66363;49.828;7.856;2023-03-26T10:38:15;98757.31;;;12.67;72.05
77303;BME280;66363;49.828;7.856;2023-03-26T10:40:52;98751.91;;;13.71;64.10
77303;BME280;66363;49.828;7.856;2023-03-26T10:43:35;98761.06;;;12.82;65.06
77303;BME280;66363;49.828;7.856;2023-03-26T10:46:26;98754.91;;;12.20;66.70
77303;BME280;66363;49.828;7.856;2023-03-26T10:49:25;98734.16;;;12.24;65.45
77303;BME280;66363;49.828;7.856;2023-03-26T10:51:58;98727.56;;;12.72;66.00
77303;BME280;66363;49.828;7.856;2023-03-26T10:54:32;98726.53;;;13.16;62.78
77303;BME280;66363;49.828;7.856;2023-03-26T10:57:04;98730.97;;;13.92;61.12
77303;BME280;66363;49.828;7.856;2023-03-26T10:59:31;98725.91;;;15.27;56.82
77303;BME280;66363;49.828;7.856;2023-03-26T11:02:04;98725.72;;;15.76;54.02
77303;BME280;66363;49.828;7.856;2023-03-26T11:04:45;98729.03;;;14.67;58.01
77303;BME280;66363;49.828;7.856;2023-03-26T11:07:18;98738.25;;;13.82;60.45
77303;BME280;66363;49.828;7.856;2023-03-26T11:09:50;98730.22;;;15.75;54.21
77303;BME280;66363;49.828;7.856;2023-03-26T11:12:22;98732.66;;;18.09;47.68
77303;BME280;66363;49.828;7.856;2023-03-26T11:14:56;98738.44;;;20.14;44.07
77303;BME280;66363;49.828;7.856;2023-03-26T11:17:32;98746.22;;;19.14;43.94
77303;BME280;66363;49.828;7.856;2023-03-26T11:20:06;98736.81;;;17.31;44.44
77303;BME280;66363;49.828;7.856;2023-03-26T11:22:43;98729.03;;;16.09;48.54
77303;BME280;66363;49.828;7.856;2023-03-26T11:25:37;98733.00;;;14.14;55.30
77303;BME280;66363;49.828;7.856;2023-03-26T11:28:13;98739.03;;;12.98;57.88
77303;BME280;66363;49.828;7.856;2023-03-26T11:30:47;98758.13;;;12.68;58.68
77303;BME280;66363;49.828;7.856;2023-03-26T11:33:20;98767.78;;;12.69;57.82
77303;BME280;66363;49.828;7.856;2023-03-26T11:35:51;98738.50;;;12.43;59.15
77303;BME280;66363;49.828;7.856;2023-03-26T11:38:22;98749.50;;;13.00;55.00
77303;BME280;66363;49.828;7.856;2023-03-26T11:40:53;98737.44;;;13.89;51.54
77303;BME280;66363;49.828;7.856;2023-03-26T11:43:22;98739.53;;;13.19;54.51
77303;BME280;66363;49.828;7.856;2023-03-26T11:45:50;98743.53;;;13.23;55.71
77303;BME280;66363;49.828;7.856;2023-03-26T11:48:17;98742.16;;;13.45;53.11
77303;BME280;66363;49.828;7.856;2023-03-26T11:50:45;98725.31;;;13.45;52.85
77303;BME280;66363;49.828;7.856;2023-03-26T11:53:15;98716.41;;;15.08;48.96
77303;BME280;66363;49.828;7.856;2023-03-26T11:55:46;98733.75;;;15.20;48.25
77303;BME280;66363;49.828;7.856;2023-03-26T11:58:22;98726.03;;;14.70;48.98
77303;BME280;66363;49.828;7.856;2023-03-26T12:00:50;98709.19;;;16.63;44.08
77303;BME280;66363;49.828;7.856;2023-03-26T12:03:18;98728.88;;;18.03;40.11
77303;BME280;66363;49.828;7.856;2023-03-26T12:05:47;98724.94;;;17.84;40.40
77303;BME280;66363;49.828;7.856;2023-03-26T12:08:20;98723.28;;;20.07;36.66
77303;BME280;66363;49.828;7.856;2023-03-26T12:10:50;98741.44;;;20.52;33.84
77303;BME280;66363;49.828;7.856;2023-03-26T12:13:28;98728.56;;;21.14;33.84
77303;BME280;66363;49.828;7.856;2023-03-26T12:16:02;98726.94;;;19.86;37.78
77303;BME280;66363;49.828;7.856;2023-03-26T12:18:29;98707.44;;;20.97;33.01
77303;BME280;66363;49.828;7.856;2023-03-26T12:21:03;98745.50;;;21.60;32.67
77303;BME280;66363;49.828;7.856;2023-03-26T12:23:55;98714.06;;;21.02;32.62
77303;BME280;66363;49.828;7.856;2023-03-26T12:26:38;98725.25;;;20.46;33.59
77303;BME280;66363;49.828;7.856;2023-03-26T12:29:08;98731.66;;;19.71;35.35
77303;BME280;66363;49.828;7.856;2023-03-26T12:31:50;98714.41;;;20.19;36.71
77303;BME280;66363;49.828;7.856;2023-03-26T12:34:17;98715.03;;;21.40;31.56
77303;BME280;66363;49.828;7.856;2023-03-26T12:36:48;98711.63;;;21.64;30.89
77303;BME280;66363;49.828;7.856;2023-03-26T12:39:30;98701.19;;;21.04;33.35
77303;BME280;66363;49.828;7.856;2023-03-26T12:41:57;98708.63;;;19.20;34.93
77303;BME280;66363;49.828;7.856;2023-03-26T12:44:27;98710.94;;;17.23;40.07
77303;BME280;66363;49.828;7.856;2023-03-26T12:47:07;98733.34;;;15.48;42.44
77303;BME280;66363;49.828;7.856;2023-03-26T12:49:42;98734.22;;;14.52;45.53
77303;BME280;66363;49.828;7.856;2023-03-26T12:52:31;98715.31;;;14.30;48.29
77303;BME280;66363;49.828;7.856;2023-03-26T12:55:16;98730.66;;;14.36;46.57
77303;BME280;66363;49.828;7.856;2023-03-26T12:57:51;98726.84;;;15.34;46.46
77303;BME280;66363;49.828;7.856;2023-03-26T13:00:27;98722.97;;;15.45;47.67
77303;BME280;66363;49.828;7.856;2023-03-26T13:03:08;98711.69;;;15.74;44.80
77303;BME280;66363;49.828;7.856;2023-03-26T13:05:50;98697.00;;;15.31;45.04
77303;BME280;66363;49.828;7.856;2023-03-26T13:08:40;98706.81;;;14.10;45.20
77303;BME280;66363;49.828;7.856;2023-03-26T13:11:19;98722.19;;;13.49;50.28
77303;BME280;66363;49.828;7.856;2023-03-26T13:14:12;98712.97;;;13.10;53.32
77303;BME280;66363;49.828;7.856;2023-03-26T13:16:46;98717.47;;;12.83;51.95
77303;BME280;66363;49.828;7.856;2023-03-26T13:19:18;98717.56;;;13.25;52.90
77303;BME280;66363;49.828;7.856;2023-03-26T13:21:57;98700.31;;;13.38;53.58
77303;BME280;66363;49.828;7.856;2023-03-26T13:24:33;98699.50;;;13.11;51.85
77303;BME280;66363;49.828;7.856;2023-03-26T13:27:15;98695.84;;;13.46;53.46
77303;BME280;66363;49.828;7.856;2023-03-26T13:29:51;98670.25;;;17.35;43.92
77303;BME280;66363;49.828;7.856;2023-03-26T13:32:24;98674.69;;;19.26;38.27
77303;BME280;66363;49.828;7.856;2023-03-26T13:35:02;98663.81;;;20.08;34.24
77303;BME280;66363;49.828;7.856;2023-03-26T13:37:33;98665.59;;;21.91;30.08
77303;BME280;66363;49.828;7.856;2023-03-26T13:40:17;98666.97;;;20.84;32.21
77303;BME280;66363;49.828;7.856;2023-03-26T13:43:05;98662.66;;;18.10;34.85
77303;BME280;66363;49.828;7.856;2023-03-26T13:45:49;98685.59;;;15.99;40.73
77303;BME280;66363;49.828;7.856;2023-03-26T13:48:22;98684.22;;;15.41;42.65